sensor_id;sensor_type;location;lat;lon;timestamp;P1;durP1;ratioP1;P2;durP2;ratioP2
5191;SDS011;2615;44.524;11.284;2023-02-28T00:01:08;25.70;;;14.80;;
5191;SDS011;2615;44.524;11.284;2023-02-28T00:03:36;30.63;;;15.30;;
5191;SDS011;2615;44.524;11.284;2023-02-28T00:06:05;28.90;;;15.40;;
5191;SDS011;2615;44.524;11.284;2023-02-28T00:08:35;21.53;;;14.50;;
5191;SDS011;2615;44.524;11.284;2023-02-28T00:11:04;19.17;;;14.87;;
5191;SDS011;2615;44.524;11.284;2023-02-28T00:13:34;30.23;;;15.73;;
5191;SDS011;2615;44.524;11.284;2023-02-28T00:16:05;25.40;;;15.63;;
5191;SDS011;2615;44.524;11.284;2023-02-28T00:18:36;22.73;;;13.60;;
5191;SDS011;2615;44.524;11.284;2023-02-28T00:21:05;19.57;;;15.10;;
5191;SDS011;2615;44.524;11.284;2023-02-28T00:23:33;27.20;;;13.93;;
5191;SDS011;2615;44.524;11.284;2023-02-28T00:26:02;22.20;;;14.70;;
5191;SDS011;2615;44.524;11.284;2023-02-28T00:28:30;20.50;;;13.90;;
5191;SDS011;2615;44.524;11.284;2023-02-28T00:30:59;28.93;;;15.10;;
5191;SDS011;2615;44.524;11.284;2023-02-28T00:33:27;21.30;;;12.93;;
5191;SDS011;2615;44.524;11.284;2023-02-28T00:36:05;17.17;;;13.30;;
5191;SDS011;2615;44.524;11.284;2023-02-28T00:38:34;24.03;;;14.13;;
5191;SDS011;2615;44.524;11.284;2023-02-28T00:41:03;21.30;;;13.50;;
5191;SDS011;2615;44.524;11.284;2023-02-28T00:43:32;21.73;;;13.90;;
5191;SDS011;2615;44.524;11.284;2023-02-28T00:46:01;18.50;;;13.47;;
5191;SDS011;2615;44.524;11.284;2023-02-28T00:48:30;22.97;;;13.20;;
5191;SDS011;2615;44.524;11.284;2023-02-28T00:50:59;23.13;;;13.17;;
5191;SDS011;2615;44.524;11.284;2023-02-28T00:53:29;18.97;;;11.87;;
5191;SDS011;2615;44.524;11.284;2023-02-28T00:55:58;19.40;;;12.70;;
5191;SDS011;2615;44.524;11.284;2023-02-28T00:58:26;23.67;;;13.23;;
5191;SDS011;2615;44.524;11.284;2023-02-28T01:00:54;18.67;;;12.27;;
5191;SDS011;2615;44.524;11.284;2023-02-28T01:03:23;20.33;;;12.60;;
5191;SDS011;2615;44.524;11.284;2023-02-28T01:05:51;23.80;;;13.23;;
5191;SDS011;2615;44.524;11.284;2023-02-28T01:08:20;20.87;;;13.73;;
5191;SDS011;2615;44.524;11.284;2023-02-28T01:10:50;17.60;;;12.70;;
5191;SDS011;2615;44.524;11.284;2023-02-28T01:13:18;19.87;;;12.57;;
5191;SDS011;2615;44.524;11.284;2023-02-28T01:15:48;28.23;;;13.80;;
5191;SDS011;2615;44.524;11.284;2023-02-28T01:18:18;17.20;;;12.70;;
5191;SDS011;2615;44.524;11.284;2023-02-28T01:20:47;19.33;;;12.53;;
5191;SDS011;2615;44.524;11.284;2023-02-28T01:23:15;18.97;;;12.53;;
5191;SDS011;2615;44.524;11.284;2023-02-28T01:25:43;21.23;;;13.50;;
5191;SDS011;2615;44.524;11.284;2023-02-28T01:28:13;19.77;;;13.47;;
5191;SDS011;2615;44.524;11.284;2023-02-28T01:30:41;21.20;;;14.07;;
5191;SDS011;2615;44.524;11.284;2023-02-28T01:33:10;18.40;;;13.00;;
5191;SDS011;2615;44.524;11.284;2023-02-28T01:35:38;24.27;;;12.77;;
5191;SDS011;2615;44.524;11.284;2023-02-28T01:38:06;26.90;;;14.43;;
5191;SDS011;2615;44.524;11.284;2023-02-28T01:40:47;17.80;;;12.60;;
5191;SDS011;2615;44.524;11.284;2023-02-28T01:43:19;18.90;;;12.93;;
5191;SDS011;2615;44.524;11.284;2023-02-28T01:45:49;19.90;;;11.63;;
5191;SDS011;2615;44.524;11.284;2023-02-28T01:48:17;15.63;;;12.13;;
5191;SDS011;2615;44.524;11.284;2023-02-28T01:50:46;16.57;;;12.70;;
5191;SDS011;2615;44.524;11.284;2023-02-28T01:53:17;18.73;;;12.00;;
5191;SDS011;2615;44.524;11.284;2023-02-28T01:55:49;20.30;;;11.73;;
5191;SDS011;2615;44.524;11.284;2023-02-28T01:58:20;19.20;;;12.67;;
5191;SDS011;2615;44.524;11.284;2023-02-28T02:00:49;17.43;;;11.93;;
5191;SDS011;2615;44.524;11.284;2023-02-28T02:03:18;17.30;;;12.00;;
5191;SDS011;2615;44.524;11.284;2023-02-28T02:05:47;16.80;;;11.50;;
5191;SDS011;2615;44.524;11.284;2023-02-28T02:08:17;13.93;;;10.90;;
5191;SDS011;2615;44.524;11.284;2023-02-28T02:10:48;16.43;;;11.23;;
5191;SDS011;2615;44.524;11.284;2023-02-28T02:16:28;18.57;;;12.03;;
5191;SDS011;2615;44.524;11.284;2023-02-28T02:19:09;15.63;;;11.57;;
5191;SDS011;2615;44.524;11.284;2023-02-28T02:22:02;18.30;;;11.97;;
5191;SDS011;2615;44.524;11.284;2023-02-28T02:24:58;20.60;;;12.30;;
5191;SDS011;2615;44.524;11.284;2023-02-28T02:28:10;21.60;;;12.63;;
5191;SDS011;2615;44.524;11.284;2023-02-28T02:31:01;17.17;;;10.60;;
5191;SDS011;2615;44.524;11.284;2023-02-28T02:37:00;20.67;;;12.77;;
5191;SDS011;2615;44.524;11.284;2023-02-28T02:39:39;15.20;;;11.63;;
5191;SDS011;2615;44.524;11.284;2023-02-28T02:42:15;26.67;;;13.07;;
5191;SDS011;2615;44.524;11.284;2023-02-28T02:44:47;18.37;;;11.93;;
5191;SDS011;2615;44.524;11.284;2023-02-28T02:47:20;22.47;;;12.90;;
5191;SDS011;2615;44.524;11.284;2023-02-28T02:49:52;24.60;;;12.50;;
5191;SDS011;2615;44.524;11.284;2023-02-28T02:52:24;18.63;;;11.70;;
5191;SDS011;2615;44.524;11.284;2023-02-28T02:54:59;17.23;;;11.50;;
5191;SDS011;2615;44.524;11.284;2023-02-28T02:57:29;13.63;;;10.70;;
5191;SDS011;2615;44.524;11.284;2023-02-28T03:00:02;17.10;;;12.70;;
5191;SDS011;2615;44.524;11.284;2023-02-28T03:02:34;18.75;;;12.52;;
5191;SDS011;2615;44.524;11.284;2023-02-28T03:05:04;15.52;;;11.82;;
5191;SDS011;2615;44.524;11.284;2023-02-28T03:07:40;20.13;;;12.05;;
5191;SDS011;2615;44.524;11.284;2023-02-28T03:10:27;14.50;;;10.77;;
5191;SDS011;2615;44.524;11.284;2023-02-28T03:13:11;17.93;;;11.60;;
5191;SDS011;2615;44.524;11.284;2023-02-28T03:16:02;14.52;;;10.82;;
5191;SDS011;2615;44.524;11.284;2023-02-28T03:18:46;17.25;;;10.98;;
5191;SDS011;2615;44.524;11.284;2023-02-28T03:21:21;14.02;;;11.15;;
5191;SDS011;2615;44.524;11.284;2023-02-28T03:23:58;14.60;;;10.80;;
5191;SDS011;2615;44.524;11.284;2023-02-28T03:26:36;15.30;;;11.80;;
5191;SDS011;2615;44.524;11.284;2023-02-28T03:29:08;17.13;;;12.70;;
5191;SDS011;2615;44.524;11.284;2023-02-28T03:31:44;13.70;;;10.93;;
5191;SDS011;2615;44.524;11.284;2023-02-28T03:34:17;14.43;;;10.70;;
5191;SDS011;2615;44.524;11.284;2023-02-28T03:36:51;19.35;;;10.85;;
5191;SDS011;2615;44.524;11.284;2023-02-28T03:39:27;17.25;;;10.90;;
5191;SDS011;2615;44.524;11.284;2023-02-28T03:42:01;14.47;;;11.30;;
5191;SDS011;2615;44.524;11.284;2023-02-28T03:44:34;19.33;;;11.53;;
5191;SDS011;2615;44.524;11.284;2023-02-28T03:47:07;16.00;;;10.63;;
5191;SDS011;2615;44.524;11.284;2023-02-28T03:49:39;16.17;;;10.65;;
5191;SDS011;2615;44.524;11.284;2023-02-28T03:52:10;17.70;;;11.05;;
5191;SDS011;2615;44.524;11.284;2023-02-28T03:54:41;17.55;;;11.15;;
5191;SDS011;2615;44.524;11.284;2023-02-28T03:57:15;24.27;;;11.70;;
5191;SDS011;2615;44.524;11.284;2023-02-28T03:59:49;18.75;;;12.02;;
5191;SDS011;2615;44.524;11.284;2023-02-28T04:02:23;15.33;;;10.60;;
5191;SDS011;2615;44.524;11.284;2023-02-28T04:04:51;18.17;;;11.70;;
5191;SDS011;2615;44.524;11.284;2023-02-28T04:07:19;17.33;;;10.82;;
5191;SDS011;2615;44.524;11.284;2023-02-28T04:09:49;17.40;;;11.00;;
5191;SDS011;2615;44.524;11.284;2023-02-28T04:12:17;15.40;;;11.10;;
5191;SDS011;2615;44.524;11.284;2023-02-28T04:14:45;17.60;;;11.27;;
5191;SDS011;2615;44.524;11.284;2023-02-28T04:17:13;14.20;;;10.17;;
5191;SDS011;2615;44.524;11.284;2023-02-28T04:19:41;16.50;;;11.90;;
5191;SDS011;2615;44.524;11.284;2023-02-28T04:22:10;15.00;;;11.20;;
5191;SDS011;2615;44.524;11.284;2023-02-28T04:24:38;18.17;;;12.97;;
5191;SDS011;2615;44.524;11.284;2023-02-28T04:27:09;15.77;;;12.17;;
5191;SDS011;2615;44.524;11.284;2023-02-28T04:29:37;16.38;;;11.10;;
5191;SDS011;2615;44.524;11.284;2023-02-28T04:32:05;16.63;;;11.30;;
5191;SDS011;2615;44.524;11.284;2023-02-28T04:34:33;17.52;;;11.48;;
5191;SDS011;2615;44.524;11.284;2023-02-28T04:37:01;20.00;;;13.03;;
5191;SDS011;2615;44.524;11.284;2023-02-28T04:39:39;21.33;;;11.40;;
5191;SDS011;2615;44.524;11.284;2023-02-28T04:42:09;16.17;;;11.73;;
5191;SDS011;2615;44.524;11.284;2023-02-28T04:44:38;23.45;;;12.63;;
5191;SDS011;2615;44.524;11.284;2023-02-28T04:47:06;21.47;;;10.93;;
5191;SDS011;2615;44.524;11.284;2023-02-28T04:49:34;16.87;;;12.30;;
5191;SDS011;2615;44.524;11.284;2023-02-28T04:52:02;15.33;;;11.77;;
5191;SDS011;2615;44.524;11.284;2023-02-28T04:54:31;19.57;;;12.37;;
5191;SDS011;2615;44.524;11.284;2023-02-28T04:56:59;16.23;;;11.85;;
5191;SDS011;2615;44.524;11.284;2023-02-28T04:59:29;15.47;;;11.33;;
5191;SDS011;2615;44.524;11.284;2023-02-28T05:01:57;17.80;;;12.40;;
5191;SDS011;2615;44.524;11.284;2023-02-28T05:04:25;20.80;;;13.07;;
5191;SDS011;2615;44.524;11.284;2023-02-28T05:06:53;15.50;;;11.90;;
5191;SDS011;2615;44.524;11.284;2023-02-28T05:09:21;18.33;;;11.48;;
5191;SDS011;2615;44.524;11.284;2023-02-28T05:11:49;16.63;;;11.77;;
5191;SDS011;2615;44.524;11.284;2023-02-28T05:14:17;16.55;;;12.38;;
5191;SDS011;2615;44.524;11.284;2023-02-28T05:16:47;14.98;;;10.80;;
5191;SDS011;2615;44.524;11.284;2023-02-28T05:19:15;16.40;;;11.90;;
5191;SDS011;2615;44.524;11.284;2023-02-28T05:21:48;18.30;;;12.20;;
5191;SDS011;2615;44.524;11.284;2023-02-28T05:24:18;15.33;;;11.70;;
5191;SDS011;2615;44.524;11.284;2023-02-28T05:26:49;18.17;;;12.90;;
5191;SDS011;2615;44.524;11.284;2023-02-28T05:29:19;19.63;;;12.03;;
5191;SDS011;2615;44.524;11.284;2023-02-28T05:31:48;17.03;;;12.07;;
5191;SDS011;2615;44.524;11.284;2023-02-28T05:34:17;15.57;;;12.10;;
5191;SDS011;2615;44.524;11.284;2023-02-28T05:36:45;15.97;;;12.23;;
5191;SDS011;2615;44.524;11.284;2023-02-28T05:39:13;14.33;;;11.70;;
5191;SDS011;2615;44.524;11.284;2023-02-28T05:41:41;17.53;;;12.90;;
5191;SDS011;2615;44.524;11.284;2023-02-28T05:44:10;20.93;;;13.30;;
5191;SDS011;2615;44.524;11.284;2023-02-28T05:46:39;15.93;;;11.07;;
5191;SDS011;2615;44.524;11.284;2023-02-28T05:49:09;18.40;;;14.00;;
5191;SDS011;2615;44.524;11.284;2023-02-28T05:51:37;15.57;;;11.67;;
5191;SDS011;2615;44.524;11.284;2023-02-28T05:54:06;18.93;;;13.00;;
5191;SDS011;2615;44.524;11.284;2023-02-28T05:56:34;17.50;;;12.40;;
5191;SDS011;2615;44.524;11.284;2023-02-28T05:59:05;21.90;;;13.60;;
5191;SDS011;2615;44.524;11.284;2023-02-28T06:01:34;14.80;;;10.52;;
5191;SDS011;2615;44.524;11.284;2023-02-28T06:04:05;24.73;;;11.30;;
5191;SDS011;2615;44.524;11.284;2023-02-28T06:06:52;19.60;;;12.80;;
5191;SDS011;2615;44.524;11.284;2023-02-28T06:09:20;23.87;;;13.13;;
5191;SDS011;2615;44.524;11.284;2023-02-28T06:11:49;19.80;;;14.20;;
5191;SDS011;2615;44.524;11.284;2023-02-28T06:14:18;17.45;;;12.38;;
5191;SDS011;2615;44.524;11.284;2023-02-28T06:16:47;19.33;;;13.83;;
5191;SDS011;2615;44.524;11.284;2023-02-28T06:19:15;16.87;;;12.47;;
5191;SDS011;2615;44.524;11.284;2023-02-28T06:21:44;18.93;;;13.13;;
5191;SDS011;2615;44.524;11.284;2023-02-28T06:24:13;17.42;;;12.73;;
5191;SDS011;2615;44.524;11.284;2023-02-28T06:26:41;16.63;;;13.10;;
5191;SDS011;2615;44.524;11.284;2023-02-28T06:29:09;20.30;;;15.17;;
5191;SDS011;2615;44.524;11.284;2023-02-28T06:31:37;21.27;;;13.97;;
5191;SDS011;2615;44.524;11.284;2023-02-28T06:34:06;18.67;;;13.40;;
5191;SDS011;2615;44.524;11.284;2023-02-28T06:36:34;18.50;;;14.17;;
5191;SDS011;2615;44.524;11.284;2023-02-28T06:39:02;16.50;;;13.03;;
5191;SDS011;2615;44.524;11.284;2023-02-28T06:41:31;18.33;;;13.38;;
5191;SDS011;2615;44.524;11.284;2023-02-28T06:44:20;20.33;;;13.80;;
5191;SDS011;2615;44.524;11.284;2023-02-28T06:46:49;21.40;;;14.07;;
5191;SDS011;2615;44.524;11.284;2023-02-28T06:49:18;18.67;;;14.23;;
5191;SDS011;2615;44.524;11.284;2023-02-28T06:51:46;18.20;;;15.13;;
5191;SDS011;2615;44.524;11.284;2023-02-28T06:54:14;20.47;;;14.20;;
5191;SDS011;2615;44.524;11.284;2023-02-28T06:56:43;20.50;;;13.10;;
5191;SDS011;2615;44.524;11.284;2023-02-28T06:59:11;23.63;;;14.23;;
5191;SDS011;2615;44.524;11.284;2023-02-28T07:01:39;21.95;;;15.02;;
5191;SDS011;2615;44.524;11.284;2023-02-28T07:04:07;19.90;;;13.53;;
5191;SDS011;2615;44.524;11.284;2023-02-28T07:06:36;20.37;;;14.23;;
5191;SDS011;2615;44.524;11.284;2023-02-28T07:09:04;22.03;;;14.03;;
5191;SDS011;2615;44.524;11.284;2023-02-28T07:11:33;21.70;;;15.40;;
5191;SDS011;2615;44.524;11.284;2023-02-28T07:14:02;20.38;;;14.75;;
5191;SDS011;2615;44.524;11.284;2023-02-28T07:16:30;21.00;;;15.33;;
5191;SDS011;2615;44.524;11.284;2023-02-28T07:18:58;25.07;;;16.80;;
5191;SDS011;2615;44.524;11.284;2023-02-28T07:21:27;20.90;;;14.60;;
5191;SDS011;2615;44.524;11.284;2023-02-28T07:23:55;24.60;;;16.43;;
5191;SDS011;2615;44.524;11.284;2023-02-28T07:26:24;26.48;;;15.15;;
5191;SDS011;2615;44.524;11.284;2023-02-28T07:28:52;22.45;;;16.15;;
5191;SDS011;2615;44.524;11.284;2023-02-28T07:31:21;22.02;;;16.63;;
5191;SDS011;2615;44.524;11.284;2023-02-28T07:33:50;22.83;;;16.00;;
5191;SDS011;2615;44.524;11.284;2023-02-28T07:36:18;20.38;;;14.93;;
5191;SDS011;2615;44.524;11.284;2023-02-28T07:38:46;23.23;;;15.00;;
5191;SDS011;2615;44.524;11.284;2023-02-28T07:41:16;23.10;;;17.07;;
5191;SDS011;2615;44.524;11.284;2023-02-28T07:43:45;30.17;;;16.67;;
5191;SDS011;2615;44.524;11.284;2023-02-28T07:46:14;68.70;;;43.57;;
5191;SDS011;2615;44.524;11.284;2023-02-28T07:48:45;325.13;;;150.77;;
5191;SDS011;2615;44.524;11.284;2023-02-28T07:51:13;137.20;;;77.10;;
5191;SDS011;2615;44.524;11.284;2023-02-28T07:53:41;52.47;;;33.57;;
5191;SDS011;2615;44.524;11.284;2023-02-28T07:56:09;114.47;;;77.13;;
5191;SDS011;2615;44.524;11.284;2023-02-28T07:58:38;85.20;;;38.83;;
5191;SDS011;2615;44.524;11.284;2023-02-28T08:01:07;38.78;;;34.08;;
5191;SDS011;2615;44.524;11.284;2023-02-28T08:03:37;41.63;;;36.03;;
5191;SDS011;2615;44.524;11.284;2023-02-28T08:06:08;44.38;;;37.75;;
5191;SDS011;2615;44.524;11.284;2023-02-28T08:08:43;35.37;;;27.47;;
5191;SDS011;2615;44.524;11.284;2023-02-28T08:11:11;57.53;;;49.97;;
5191;SDS011;2615;44.524;11.284;2023-02-28T08:13:40;51.27;;;41.37;;
5191;SDS011;2615;44.524;11.284;2023-02-28T08:16:10;68.80;;;62.03;;
5191;SDS011;2615;44.524;11.284;2023-02-28T08:18:41;34.33;;;27.77;;
5191;SDS011;2615;44.524;11.284;2023-02-28T08:21:11;21.83;;;17.13;;
5191;SDS011;2615;44.524;11.284;2023-02-28T08:23:39;41.23;;;36.93;;
5191;SDS011;2615;44.524;11.284;2023-02-28T08:26:07;21.27;;;17.05;;
5191;SDS011;2615;44.524;11.284;2023-02-28T08:28:35;26.70;;;16.57;;
5191;SDS011;2615;44.524;11.284;2023-02-28T08:31:06;25.30;;;20.13;;
5191;SDS011;2615;44.524;11.284;2023-02-28T08:33:36;27.30;;;21.33;;
5191;SDS011;2615;44.524;11.284;2023-02-28T08:36:05;22.80;;;18.07;;
5191;SDS011;2615;44.524;11.284;2023-02-28T08:38:36;24.03;;;17.30;;
5191;SDS011;2615;44.524;11.284;2023-02-28T08:41:06;21.40;;;16.00;;
5191;SDS011;2615;44.524;11.284;2023-02-28T08:43:36;20.20;;;15.27;;
5191;SDS011;2615;44.524;11.284;2023-02-28T08:46:05;24.27;;;16.63;;
5191;SDS011;2615;44.524;11.284;2023-02-28T08:48:34;23.67;;;16.33;;
5191;SDS011;2615;44.524;11.284;2023-02-28T08:51:04;25.03;;;19.00;;
5191;SDS011;2615;44.524;11.284;2023-02-28T08:53:36;25.10;;;19.93;;
5191;SDS011;2615;44.524;11.284;2023-02-28T08:56:06;32.70;;;19.77;;
5191;SDS011;2615;44.524;11.284;2023-02-28T08:58:36;23.50;;;17.50;;
5191;SDS011;2615;44.524;11.284;2023-02-28T09:01:08;23.47;;;19.10;;
5191;SDS011;2615;44.524;11.284;2023-02-28T09:03:38;29.50;;;21.37;;
5191;SDS011;2615;44.524;11.284;2023-02-28T09:06:08;31.13;;;28.03;;
5191;SDS011;2615;44.524;11.284;2023-02-28T09:08:39;34.17;;;30.00;;
5191;SDS011;2615;44.524;11.284;2023-02-28T09:11:07;26.60;;;22.53;;
5191;SDS011;2615;44.524;11.284;2023-02-28T09:13:36;26.10;;;20.00;;
5191;SDS011;2615;44.524;11.284;2023-02-28T09:16:05;30.07;;;22.50;;
5191;SDS011;2615;44.524;11.284;2023-02-28T09:18:35;26.97;;;20.97;;
5191;SDS011;2615;44.524;11.284;2023-02-28T09:21:04;44.83;;;40.47;;
5191;SDS011;2615;44.524;11.284;2023-02-28T09:23:32;27.00;;;19.90;;
5191;SDS011;2615;44.524;11.284;2023-02-28T09:26:02;25.73;;;20.77;;
5191;SDS011;2615;44.524;11.284;2023-02-28T09:28:31;25.03;;;18.00;;
5191;SDS011;2615;44.524;11.284;2023-02-28T09:30:59;32.07;;;20.70;;
5191;SDS011;2615;44.524;11.284;2023-02-28T09:33:27;23.17;;;18.73;;
5191;SDS011;2615;44.524;11.284;2023-02-28T09:35:58;29.10;;;19.03;;
5191;SDS011;2615;44.524;11.284;2023-02-28T09:38:28;24.80;;;19.93;;
5191;SDS011;2615;44.524;11.284;2023-02-28T09:40:57;29.10;;;20.13;;
5191;SDS011;2615;44.524;11.284;2023-02-28T09:43:29;22.83;;;16.20;;
5191;SDS011;2615;44.524;11.284;2023-02-28T09:46:03;27.80;;;19.10;;
5191;SDS011;2615;44.524;11.284;2023-02-28T09:48:41;23.17;;;17.23;;
5191;SDS011;2615;44.524;11.284;2023-02-28T09:51:14;23.97;;;16.70;;
5191;SDS011;2615;44.524;11.284;2023-02-28T09:53:54;24.13;;;16.33;;
5191;SDS011;2615;44.524;11.284;2023-02-28T09:56:28;27.10;;;17.77;;
5191;SDS011;2615;44.524;11.284;2023-02-28T09:59:02;22.57;;;16.63;;
5191;SDS011;2615;44.524;11.284;2023-02-28T10:01:39;23.53;;;16.93;;
5191;SDS011;2615;44.524;11.284;2023-02-28T10:04:16;33.40;;;24.40;;
5191;SDS011;2615;44.524;11.284;2023-02-28T10:07:03;34.57;;;24.00;;
5191;SDS011;2615;44.524;11.284;2023-02-28T10:09:43;26.17;;;17.97;;
5191;SDS011;2615;44.524;11.284;2023-02-28T10:12:14;24.20;;;18.73;;
5191;SDS011;2615;44.524;11.284;2023-02-28T10:14:45;25.63;;;18.13;;
5191;SDS011;2615;44.524;11.284;2023-02-28T10:17:17;29.43;;;18.80;;
5191;SDS011;2615;44.524;11.284;2023-02-28T10:19:51;24.50;;;17.47;;
5191;SDS011;2615;44.524;11.284;2023-02-28T10:22:27;24.27;;;16.87;;
5191;SDS011;2615;44.524;11.284;2023-02-28T10:25:04;23.47;;;17.53;;
5191;SDS011;2615;44.524;11.284;2023-02-28T10:27:43;32.27;;;17.43;;
5191;SDS011;2615;44.524;11.284;2023-02-28T10:30:13;32.63;;;18.70;;
5191;SDS011;2615;44.524;11.284;2023-02-28T10:32:43;23.70;;;17.67;;
5191;SDS011;2615;44.524;11.284;2023-02-28T10:35:18;25.10;;;17.93;;
5191;SDS011;2615;44.524;11.284;2023-02-28T10:37:48;23.60;;;17.23;;
5191;SDS011;2615;44.524;11.284;2023-02-28T10:40:25;24.73;;;17.07;;
5191;SDS011;2615;44.524;11.284;2023-02-28T10:42:59;22.70;;;17.70;;
5191;SDS011;2615;44.524;11.284;2023-02-28T10:45:30;25.20;;;17.60;;
5191;SDS011;2615;44.524;11.284;2023-02-28T10:48:01;26.50;;;19.10;;
5191;SDS011;2615;44.524;11.284;2023-02-28T10:50:32;28.23;;;18.67;;
5191;SDS011;2615;44.524;11.284;2023-02-28T10:53:07;29.00;;;17.50;;
5191;SDS011;2615;44.524;11.284;2023-02-28T10:55:44;22.80;;;17.27;;
5191;SDS011;2615;44.524;11.284;2023-02-28T10:58:22;22.03;;;17.70;;
5191;SDS011;2615;44.524;11.284;2023-02-28T11:00:52;26.70;;;17.07;;
5191;SDS011;2615;44.524;11.284;2023-02-28T11:03:25;25.60;;;17.63;;
5191;SDS011;2615;44.524;11.284;2023-02-28T11:05:57;26.50;;;16.73;;
5191;SDS011;2615;44.524;11.284;2023-02-28T11:08:31;44.13;;;19.13;;
5191;SDS011;2615;44.524;11.284;2023-02-28T11:11:01;24.03;;;17.33;;
5191;SDS011;2615;44.524;11.284;2023-02-28T11:13:34;46.53;;;18.77;;
5191;SDS011;2615;44.524;11.284;2023-02-28T11:16:06;27.47;;;19.80;;
5191;SDS011;2615;44.524;11.284;2023-02-28T11:18:38;25.23;;;18.33;;
5191;SDS011;2615;44.524;11.284;2023-02-28T11:21:09;22.20;;;15.97;;
5191;SDS011;2615;44.524;11.284;2023-02-28T11:23:44;21.60;;;16.40;;
5191;SDS011;2615;44.524;11.284;2023-02-28T11:26:12;19.73;;;15.80;;
5191;SDS011;2615;44.524;11.284;2023-02-28T11:28:41;22.00;;;16.17;;
5191;SDS011;2615;44.524;11.284;2023-02-28T11:31:17;20.10;;;15.60;;
5191;SDS011;2615;44.524;11.284;2023-02-28T11:33:49;23.20;;;16.90;;
5191;SDS011;2615;44.524;11.284;2023-02-28T11:36:19;23.20;;;15.60;;
5191;SDS011;2615;44.524;11.284;2023-02-28T11:38:51;29.93;;;16.20;;
5191;SDS011;2615;44.524;11.284;2023-02-28T11:41:30;21.70;;;16.37;;
5191;SDS011;2615;44.524;11.284;2023-02-28T11:44:29;27.60;;;17.70;;
5191;SDS011;2615;44.524;11.284;2023-02-28T11:47:09;22.37;;;15.70;;
5191;SDS011;2615;44.524;11.284;2023-02-28T11:49:44;27.10;;;17.50;;
5191;SDS011;2615;44.524;11.284;2023-02-28T11:52:20;20.00;;;15.00;;
5191;SDS011;2615;44.524;11.284;2023-02-28T11:54:59;20.77;;;16.30;;
5191;SDS011;2615;44.524;11.284;2023-02-28T11:57:43;21.47;;;16.47;;
5191;SDS011;2615;44.524;11.284;2023-02-28T12:00:39;19.60;;;15.67;;
5191;SDS011;2615;44.524;11.284;2023-02-28T12:03:17;22.83;;;15.37;;
5191;SDS011;2615;44.524;11.284;2023-02-28T12:05:57;26.63;;;15.40;;
5191;SDS011;2615;44.524;11.284;2023-02-28T12:08:44;21.47;;;16.40;;
5191;SDS011;2615;44.524;11.284;2023-02-28T12:11:24;22.87;;;15.50;;
5191;SDS011;2615;44.524;11.284;2023-02-28T12:14:05;22.17;;;14.73;;
5191;SDS011;2615;44.524;11.284;2023-02-28T12:16:54;22.10;;;14.43;;
5191;SDS011;2615;44.524;11.284;2023-02-28T12:19:33;20.67;;;15.17;;
5191;SDS011;2615;44.524;11.284;2023-02-28T12:22:20;22.53;;;16.17;;
5191;SDS011;2615;44.524;11.284;2023-02-28T12:25:00;19.33;;;14.30;;
5191;SDS011;2615;44.524;11.284;2023-02-28T12:27:46;21.63;;;14.37;;
5191;SDS011;2615;44.524;11.284;2023-02-28T12:30:17;21.13;;;15.03;;
5191;SDS011;2615;44.524;11.284;2023-02-28T12:32:50;21.23;;;13.33;;
5191;SDS011;2615;44.524;11.284;2023-02-28T12:35:25;24.20;;;15.10;;
5191;SDS011;2615;44.524;11.284;2023-02-28T12:38:01;26.83;;;14.67;;
5191;SDS011;2615;44.524;11.284;2023-02-28T12:40:38;23.53;;;15.50;;
5191;SDS011;2615;44.524;11.284;2023-02-28T12:43:12;18.47;;;15.13;;
5191;SDS011;2615;44.524;11.284;2023-02-28T12:45:44;23.00;;;16.60;;
5191;SDS011;2615;44.524;11.284;2023-02-28T12:48:18;23.80;;;15.70;;
5191;SDS011;2615;44.524;11.284;2023-02-28T12:50:52;20.77;;;15.17;;
5191;SDS011;2615;44.524;11.284;2023-02-28T12:53:23;22.80;;;15.77;;
5191;SDS011;2615;44.524;11.284;2023-02-28T12:56:01;21.40;;;15.40;;
5191;SDS011;2615;44.524;11.284;2023-02-28T12:58:39;20.50;;;15.00;;
5191;SDS011;2615;44.524;11.284;2023-02-28T13:01:20;21.70;;;15.20;;
5191;SDS011;2615;44.524;11.284;2023-02-28T13:04:25;23.43;;;16.53;;
5191;SDS011;2615;44.524;11.284;2023-02-28T13:07:25;22.53;;;15.90;;
5191;SDS011;2615;44.524;11.284;2023-02-28T13:10:13;27.40;;;20.23;;
5191;SDS011;2615;44.524;11.284;2023-02-28T13:12:48;195.77;;;105.37;;
5191;SDS011;2615;44.524;11.284;2023-02-28T13:15:18;427.87;;;232.03;;
5191;SDS011;2615;44.524;11.284;2023-02-28T13:17:51;194.23;;;108.93;;
5191;SDS011;2615;44.524;11.284;2023-02-28T13:20:21;375.37;;;210.13;;
5191;SDS011;2615;44.524;11.284;2023-02-28T13:22:54;340.07;;;214.03;;
5191;SDS011;2615;44.524;11.284;2023-02-28T13:31:30;94.07;;;70.90;;
5191;SDS011;2615;44.524;11.284;2023-02-28T13:36:46;71.60;;;57.07;;
5191;SDS011;2615;44.524;11.284;2023-02-28T13:42:31;35.80;;;29.03;;
5191;SDS011;2615;44.524;11.284;2023-02-28T13:45:25;31.50;;;22.37;;
5191;SDS011;2615;44.524;11.284;2023-02-28T13:47:58;28.47;;;20.30;;
5191;SDS011;2615;44.524;11.284;2023-02-28T13:50:28;40.30;;;34.20;;
5191;SDS011;2615;44.524;11.284;2023-02-28T13:53:14;34.40;;;27.63;;
5191;SDS011;2615;44.524;11.284;2023-02-28T13:56:03;43.60;;;37.10;;
5191;SDS011;2615;44.524;11.284;2023-02-28T13:58:48;35.53;;;26.60;;
5191;SDS011;2615;44.524;11.284;2023-02-28T14:01:27;33.97;;;22.97;;
5191;SDS011;2615;44.524;11.284;2023-02-28T14:04:11;27.40;;;20.30;;
5191;SDS011;2615;44.524;11.284;2023-02-28T14:06:58;24.93;;;18.70;;
5191;SDS011;2615;44.524;11.284;2023-02-28T14:09:28;26.63;;;20.53;;
5191;SDS011;2615;44.524;11.284;2023-02-28T14:12:00;28.20;;;21.53;;
5191;SDS011;2615;44.524;11.284;2023-02-28T14:15:04;27.30;;;18.47;;
5191;SDS011;2615;44.524;11.284;2023-02-28T14:17:52;27.13;;;18.60;;
5191;SDS011;2615;44.524;11.284;2023-02-28T14:20:21;31.10;;;19.70;;
5191;SDS011;2615;44.524;11.284;2023-02-28T14:22:53;25.20;;;19.10;;
5191;SDS011;2615;44.524;11.284;2023-02-28T14:25:31;20.87;;;17.97;;
5191;SDS011;2615;44.524;11.284;2023-02-28T14:28:12;22.00;;;17.90;;
5191;SDS011;2615;44.524;11.284;2023-02-28T14:30:57;24.33;;;17.80;;
5191;SDS011;2615;44.524;11.284;2023-02-28T14:33:35;23.33;;;19.50;;
5191;SDS011;2615;44.524;11.284;2023-02-28T14:36:14;26.50;;;20.07;;
5191;SDS011;2615;44.524;11.284;2023-02-28T14:38:47;29.10;;;20.73;;
5191;SDS011;2615;44.524;11.284;2023-02-28T14:41:21;29.23;;;20.70;;
5191;SDS011;2615;44.524;11.284;2023-02-28T14:43:53;27.53;;;19.60;;
5191;SDS011;2615;44.524;11.284;2023-02-28T14:46:23;28.73;;;20.20;;
5191;SDS011;2615;44.524;11.284;2023-02-28T14:48:55;27.40;;;19.10;;
5191;SDS011;2615;44.524;11.284;2023-02-28T14:51:23;37.43;;;25.63;;
5191;SDS011;2615;44.524;11.284;2023-02-28T14:53:56;40.63;;;21.43;;
5191;SDS011;2615;44.524;11.284;2023-02-28T14:56:28;46.80;;;23.30;;
5191;SDS011;2615;44.524;11.284;2023-02-28T14:59:02;39.77;;;21.87;;
5191;SDS011;2615;44.524;11.284;2023-02-28T15:01:32;39.27;;;23.27;;
5191;SDS011;2615;44.524;11.284;2023-02-28T15:04:01;30.40;;;22.60;;
5191;SDS011;2615;44.524;11.284;2023-02-28T15:06:31;31.77;;;21.33;;
5191;SDS011;2615;44.524;11.284;2023-02-28T15:09:07;30.47;;;23.23;;
5191;SDS011;2615;44.524;11.284;2023-02-28T15:11:37;32.27;;;27.30;;
5191;SDS011;2615;44.524;11.284;2023-02-28T15:14:12;35.80;;;31.83;;
5191;SDS011;2615;44.524;11.284;2023-02-28T15:16:45;41.40;;;36.13;;
5191;SDS011;2615;44.524;11.284;2023-02-28T15:19:19;47.90;;;41.20;;
5191;SDS011;2615;44.524;11.284;2023-02-28T15:21:51;54.30;;;48.77;;
5191;SDS011;2615;44.524;11.284;2023-02-28T15:24:24;43.10;;;34.87;;